Hampstead, Maryland
Current Conditions -  °F | °C
As of 1:45 AM on Tuesday 21 Oct 2014 (Local Time) from KDMW Reporting Station
Broken Clouds Broken Clouds  
Wind Chill: 54°   Ceiling: 8000
Heat Index: 54°   Visibility: 10mi
Dew Point: 50°   Wind: 5mph
Humidity: 88%   Direction: 170°S
Pressure: 29.9"   Gusts: NA
Location:  39.6°N, 76.85°W
Report Text: KDMW 210545Z AUTO 17004KT 10SM SCT065 BKN080 120 12/10 A2990 RMK AO2
Loading
Personal Weather Stations






























Interactive Weather Map
Tropical Storm Tracking
New forecast layout! Learn more

10-Day Weather Forecast

Advertisements
Track Severe Weather on mobile